TimeCST,TemperatureF,Dew PointF,Humidity,Sea Level PressureIn,VisibilityMPH,Wind Direction,Wind SpeedMPH,Gust SpeedMPH,PrecipitationIn,Events,Conditions,WindDirDegrees,DateUTC
12:52 AM,39.9,37.0,89,29.97,-9999.0,NNW,5.8,-,N/A,,Unknown,330,2012-12-08 06:52:00
1:52 AM,39.9,37.0,89,29.97,-9999.0,Calm,Calm,-,N/A,,Unknown,0,2012-12-08 07:52:00
2:52 AM,39.9,36.0,86,29.99,-9999.0,Calm,Calm,-,N/A,,Unknown,0,2012-12-08 08:52:00
3:52 AM,37.0,35.1,93,29.99,-9999.0,Calm,Calm,-,N/A,,Unknown,0,2012-12-08 09:52:00
4:52 AM,36.0,34.0,93,30.00,-9999.0,Calm,Calm,-,N/A,,Unknown,0,2012-12-08 10:52:00
5:52 AM,33.1,30.9,92,30.03,-9999.0,NNW,4.6,-,N/A,,Unknown,330,2012-12-08 11:52:00
6:52 AM,33.1,30.9,92,30.03,-9999.0,North,3.5,-,N/A,,Unknown,350,2012-12-08 12:52:00
7:52 AM,32.0,28.9,88,30.05,-9999.0,North,3.5,-,N/A,,Unknown,360,2012-12-08 13:52:00
8:52 AM,33.1,30.9,92,30.05,-9999.0,Calm,Calm,-,N/A,,Unknown,0,2012-12-08 14:52:00
9:52 AM,37.9,34.0,86,30.07,-9999.0,Variable,4.6,-,N/A,,Unknown,0,2012-12-08 15:52:00
10:52 AM,39.9,34.0,79,30.06,-9999.0,East,5.8,-,N/A,,Unknown,80,2012-12-08 16:52:00
11:52 AM,42.1,34.0,73,30.03,-9999.0,Variable,5.8,-,N/A,,Unknown,0,2012-12-08 17:52:00
12:52 PM,42.1,33.1,70,30.00,-9999.0,ENE,8.1,-,N/A,,Unknown,60,2012-12-08 18:52:00
1:52 PM,43.0,34.0,71,29.99,-9999.0,East,6.9,-,N/A,,Unknown,80,2012-12-08 19:52:00
2:52 PM,42.1,33.1,70,30.00,-9999.0,East,6.9,-,N/A,,Unknown,100,2012-12-08 20:52:00
3:52 PM,41.0,32.0,70,30.00,-9999.0,ESE,9.2,-,N/A,,Unknown,120,2012-12-08 21:52:00
4:52 PM,39.9,32.0,73,29.99,-9999.0,ESE,11.5,-,N/A,,Unknown,110,2012-12-08 22:52:00
5:52 PM,39.0,32.0,76,29.99,-9999.0,ESE,10.4,16.1,N/A,,Unknown,110,2012-12-08 23:52:00
6:52 PM,39.0,33.1,79,29.98,-9999.0,ESE,5.8,-,N/A,,Unknown,110,2012-12-09 00:52:00
7:52 PM,39.0,33.1,79,30.00,-9999.0,ESE,4.6,-,N/A,,Unknown,120,2012-12-09 01:52:00
8:52 PM,39.0,34.0,82,29.98,-9999.0,ESE,5.8,-,N/A,,Unknown,120,2012-12-09 02:52:00
9:52 PM,39.0,35.1,86,29.97,-9999.0,East,4.6,-,0.01,,Unknown,100,2012-12-09 03:52:00
10:52 PM,39.0,36.0,89,29.96,-9999.0,Variable,3.5,-,N/A,,Unknown,0,2012-12-09 04:52:00
11:52 PM,39.0,37.0,93,29.95,-9999.0,East,5.8,-,0.01,,Unknown,100,2012-12-09 05:52:00